Hartford, Alabama
Current Conditions -  °F | °C
As of 2:58 AM on Sunday 26 Oct 2014 (Local Time) from KOZR Reporting Station
Clear Clear  
Wind Chill: 54°   Ceiling: Unl
Heat Index: 54°   Visibility: 10mi
Dew Point: 50°   Wind: 2mph
Humidity: 86%   Direction: 340°NNW
Pressure: 30.01"   Gusts: NA
Location:  31.1°N, 85.7°W
Report Text: KOZR 260758Z AUTO 34002KT 10SM CLR 12/10 A3001 RMK AO2 SLP163 T01200098
Loading
Personal Weather Stations






























Interactive Weather Map
Tropical Storm Tracking
New forecast layout! Learn more

10-Day Weather Forecast

Advertisements
Track Severe Weather on mobile